createdAt,value
2023-12-18T00:01:44.886Z,61160.81
2023-12-18T00:04:12.995Z,61139.00
2023-12-18T00:06:41.119Z,61156.00
2023-12-18T00:09:09.206Z,61145.25
2023-12-18T00:11:38.573Z,61150.66
2023-12-18T00:14:06.560Z,61152.34
2023-12-18T00:16:34.556Z,61132.91
2023-12-18T00:19:02.762Z,61116.88
2023-12-18T00:21:30.870Z,61155.47
2023-12-18T00:23:58.902Z,61115.72
2023-12-18T00:26:26.882Z,61157.09
2023-12-18T00:28:56.237Z,61132.59
2023-12-18T00:31:24.387Z,61152.28
2023-12-18T00:33:52.529Z,61139.06
2023-12-18T00:36:20.615Z,61120.00
2023-12-18T00:38:48.655Z,61131.44
2023-12-18T00:41:16.668Z,61138.47
2023-12-18T00:43:44.651Z,61117.09
2023-12-18T00:46:14.058Z,61107.91
2023-12-18T00:48:42.111Z,61074.88
2023-12-18T00:51:12.437Z,61112.19
2023-12-18T00:53:40.523Z,61112.19
2023-12-18T00:56:08.730Z,61088.69
2023-12-18T00:58:36.769Z,61084.41
2023-12-18T01:01:05.035Z,61048.50
2023-12-18T01:03:34.689Z,61081.72
2023-12-18T01:06:03.771Z,61080.06
2023-12-18T01:08:31.800Z,61059.13
2023-12-18T01:10:59.711Z,61077.00
2023-12-18T01:13:27.755Z,61067.84
2023-12-18T01:15:57.504Z,61072.75
2023-12-18T01:18:25.767Z,61079.69
2023-12-18T01:20:55.177Z,61086.00
2023-12-18T01:23:23.169Z,61080.66
2023-12-18T01:25:51.163Z,61073.28
2023-12-18T01:28:19.179Z,61078.63
2023-12-18T01:30:47.215Z,61050.03
2023-12-18T01:33:15.352Z,61075.94
2023-12-18T01:35:43.415Z,61089.22
2023-12-18T01:38:13.126Z,61062.84
2023-12-18T01:40:41.115Z,61064.19
2023-12-18T01:43:27.671Z,61088.22
2023-12-18T01:46:00.037Z,61093.56
2023-12-18T01:48:28.891Z,61090.38
2023-12-18T01:50:58.955Z,61105.16
2023-12-18T01:53:32.154Z,61080.75
2023-12-18T01:56:00.308Z,61062.59
2023-12-18T01:58:29.209Z,61029.31
2023-12-18T02:00:57.416Z,61051.31
2023-12-18T02:03:26.235Z,61040.44
2023-12-18T02:05:55.008Z,61058.25
2023-12-18T02:08:23.447Z,61043.28
2023-12-18T02:10:53.277Z,61043.38
2023-12-18T02:13:21.308Z,61027.06
2023-12-18T02:15:49.460Z,61045.31
2023-12-18T02:18:17.550Z,61029.31
2023-12-18T02:20:45.868Z,61067.13
2023-12-18T02:23:15.312Z,61065.09
2023-12-18T02:25:43.307Z,61051.31
2023-12-18T02:28:13.919Z,61048.72
2023-12-18T02:30:42.047Z,61046.06
2023-12-18T02:33:10.303Z,61032.78
2023-12-18T02:35:38.359Z,61037.84
2023-12-18T02:38:06.384Z,61003.69
2023-12-18T02:40:36.937Z,61029.94
2023-12-18T02:43:05.548Z,61034.22
2023-12-18T02:45:33.621Z,61029.41
2023-12-18T02:48:01.731Z,61012.44
2023-12-18T02:50:29.823Z,61029.41
2023-12-18T02:52:57.821Z,61015.00
2023-12-18T02:55:25.841Z,61009.66
2023-12-18T02:57:55.234Z,60983.41
2023-12-18T03:00:23.286Z,61023.34
2023-12-18T03:02:51.353Z,61036.34
2023-12-18T03:05:19.581Z,61044.28
2023-12-18T03:07:47.582Z,61065.16
2023-12-18T03:10:15.560Z,61031.00
2023-12-18T03:12:43.597Z,61013.94
2023-12-18T03:15:13.338Z,61018.81
2023-12-18T03:17:41.651Z,60996.31
2023-12-18T03:20:10.546Z,61023.63
2023-12-18T03:22:38.605Z,61032.63
2023-12-18T03:25:07.540Z,61020.34
2023-12-18T03:27:35.613Z,60999.88
2023-12-18T03:30:04.098Z,61026.84
2023-12-18T03:32:33.549Z,61012.31
2023-12-18T03:35:01.548Z,61019.91
2023-12-18T03:37:29.509Z,61040.63
2023-12-18T03:39:57.516Z,61034.22
2023-12-18T03:42:25.631Z,61023.09
2023-12-18T03:44:53.699Z,60983.31
2023-12-18T03:47:21.698Z,61032.63
2023-12-18T03:49:51.114Z,61040.53
2023-12-18T03:52:19.176Z,61032.69
2023-12-18T03:54:47.212Z,61046.06
2023-12-18T03:57:15.295Z,61058.88
2023-12-18T03:59:43.287Z,61054.50
2023-12-18T04:02:11.275Z,61036.78
2023-12-18T04:04:39.372Z,61048.72
2023-12-18T04:07:08.838Z,61027.38
2023-12-18T04:09:39.852Z,61032.16
2023-12-18T04:12:08.704Z,61022.81
2023-12-18T04:14:36.689Z,61058.25
2023-12-18T04:17:04.848Z,61038.03
2023-12-18T04:19:32.966Z,61021.41
2023-12-18T04:22:00.992Z,61004.50
2023-12-18T04:24:30.397Z,61009.66
2023-12-18T04:26:59.011Z,61019.34
2023-12-18T04:29:27.015Z,61021.84
2023-12-18T04:31:55.277Z,61000.59
2023-12-18T04:34:23.401Z,61010.56
2023-12-18T04:36:51.445Z,61015.63
2023-12-18T04:39:19.496Z,61018.19
2023-12-18T04:41:48.868Z,60993.00
2023-12-18T04:44:17.060Z,61013.94
2023-12-18T04:46:45.026Z,60986.16
2023-12-18T04:49:14.450Z,60995.31
2023-12-18T04:51:42.511Z,60987.84
2023-12-18T04:54:10.668Z,61001.66
2023-12-18T04:56:38.777Z,61013.41
2023-12-18T04:59:08.245Z,61010.72
2023-12-18T05:01:36.322Z,60979.06
2023-12-18T05:04:05.171Z,60994.19
2023-12-18T05:06:33.330Z,60985.72
2023-12-18T05:09:01.406Z,60997.81
2023-12-18T05:11:29.458Z,60988.31
2023-12-18T05:13:57.477Z,61010.63
2023-12-18T05:16:26.910Z,61007.06
2023-12-18T05:18:55.400Z,60995.78
2023-12-18T05:21:23.501Z,61012.44
2023-12-18T05:23:51.867Z,61026.72
2023-12-18T05:26:19.897Z,61015.34
2023-12-18T05:28:47.959Z,61040.69
2023-12-18T05:31:18.422Z,61010.53
2023-12-18T05:33:48.078Z,61004.75
2023-12-18T05:36:16.790Z,60999.59
2023-12-18T05:38:44.786Z,61009.13
2023-12-18T05:41:12.800Z,61026.28
2023-12-18T05:43:40.768Z,61000.47
2023-12-18T05:46:12.634Z,61037.41
2023-12-18T05:48:40.725Z,61034.53
2023-12-18T05:51:20.737Z,61042.75
2023-12-18T05:53:49.485Z,61029.50
2023-12-18T05:56:17.961Z,61032.63
2023-12-18T05:58:46.131Z,61032.16
2023-12-18T06:01:14.116Z,61002.00
2023-12-18T06:03:42.327Z,61041.25
2023-12-18T06:06:11.928Z,61022.47
2023-12-18T06:08:39.968Z,61031.63
2023-12-18T06:11:07.992Z,61012.44
2023-12-18T06:13:36.005Z,60997.91
2023-12-18T06:16:04.015Z,61003.25
2023-12-18T06:18:32.149Z,60995.25
2023-12-18T06:21:04.366Z,60996.31
2023-12-18T06:23:34.017Z,60989.38
2023-12-18T06:26:03.232Z,60936.03
2023-12-18T06:28:31.920Z,60976.66
2023-12-18T06:31:00.167Z,60985.72
2023-12-18T06:33:28.536Z,60988.38
2023-12-18T06:35:56.834Z,60997.72
2023-12-18T06:38:24.940Z,60988.31
2023-12-18T06:40:54.349Z,61002.72
2023-12-18T06:43:22.334Z,61013.41
2023-12-18T06:45:50.365Z,61016.69
2023-12-18T06:48:18.515Z,60990.25
2023-12-18T06:51:04.836Z,61008.06
2023-12-18T06:53:32.823Z,60998.53
2023-12-18T06:56:02.183Z,60995.31
2023-12-18T06:58:30.132Z,60997.38
2023-12-18T07:00:58.180Z,61004.84
2023-12-18T07:03:27.385Z,60990.97
2023-12-18T07:05:56.360Z,60999.50
2023-12-18T07:08:24.521Z,60984.06
2023-12-18T07:10:52.644Z,60988.94
2023-12-18T07:13:22.046Z,60998.91
2023-12-18T07:15:50.127Z,61006.00
2023-12-18T07:18:18.784Z,60994.09
2023-12-18T07:20:48.428Z,60988.31
2023-12-18T07:23:16.436Z,60936.38
2023-12-18T07:25:44.387Z,60961.53
2023-12-18T07:28:12.377Z,60964.50
2023-12-18T07:30:41.905Z,60952.91
2023-12-18T07:33:10.093Z,60987.84
2023-12-18T07:35:38.206Z,61000.59
2023-12-18T07:38:06.322Z,60978.09
2023-12-18T07:40:34.277Z,60986.00
2023-12-18T07:43:02.253Z,61016.16
2023-12-18T07:45:30.203Z,61010.19
2023-12-18T07:47:59.659Z,61004.84
2023-12-18T07:50:29.131Z,61016.06
2023-12-18T07:53:00.901Z,61047.66
2023-12-18T07:55:32.804Z,61061.53
2023-12-18T07:58:03.658Z,61048.72
2023-12-18T08:00:42.077Z,61014.88
2023-12-18T08:03:11.616Z,61044.44
2023-12-18T08:05:39.706Z,61059.41
2023-12-18T08:08:08.251Z,61015.88
2023-12-18T08:10:36.205Z,61020.25
2023-12-18T08:13:04.297Z,61052.44
2023-12-18T08:15:32.301Z,61050.75
2023-12-18T08:18:01.292Z,61071.66
2023-12-18T08:20:30.799Z,61077.56
2023-12-18T08:22:58.738Z,61074.25
2023-12-18T08:25:27.143Z,61073.81
2023-12-18T08:27:56.196Z,61077.56
2023-12-18T08:30:25.193Z,61020.69
2023-12-18T08:32:53.851Z,61067.31
2023-12-18T08:35:22.740Z,61094.13
2023-12-18T08:37:52.197Z,61069.25
2023-12-18T08:40:20.203Z,61086.97
2023-12-18T08:42:48.273Z,61090.38
2023-12-18T08:45:16.468Z,61081.28
2023-12-18T08:47:44.628Z,61113.16
2023-12-18T08:50:12.699Z,61116.03
2023-12-18T08:52:40.935Z,61090.38
2023-12-18T08:55:10.829Z,61097.84
2023-12-18T08:57:39.226Z,61171.16
2023-12-18T09:00:10.492Z,61107.47
2023-12-18T09:02:38.555Z,61097.84
2023-12-18T09:05:07.244Z,61090.63
2023-12-18T09:07:35.236Z,61138.47
2023-12-18T09:10:03.247Z,61157.63
2023-12-18T09:12:32.716Z,61144.66
2023-12-18T09:15:00.697Z,61183.91
2023-12-18T09:17:29.979Z,61143.00
2023-12-18T09:19:58.158Z,61166.78
2023-12-18T09:22:26.449Z,61216.44
2023-12-18T09:24:54.479Z,61185.94
2023-12-18T09:27:22.836Z,61208.94
2023-12-18T09:29:52.292Z,61207.34
2023-12-18T09:32:20.542Z,61138.78
2023-12-18T09:34:48.941Z,61177.47
2023-12-18T09:37:17.263Z,61160.09
2023-12-18T09:39:45.569Z,61275.91
2023-12-18T09:42:16.584Z,61239.44
2023-12-18T09:44:49.328Z,61184.22
2023-12-18T09:47:19.954Z,61252.81
2023-12-18T09:49:48.064Z,61258.78
2023-12-18T09:52:16.701Z,61276.44
2023-12-18T09:54:45.914Z,61283.31
2023-12-18T09:57:17.109Z,61234.69
2023-12-18T09:59:45.268Z,61262.97
2023-12-18T10:02:14.430Z,61216.81
2023-12-18T10:04:44.550Z,61270.09
2023-12-18T10:07:12.555Z,61281.28
2023-12-18T10:09:41.352Z,61297.75
2023-12-18T10:12:11.963Z,61315.44
2023-12-18T10:14:41.592Z,61358.91
2023-12-18T10:17:09.628Z,61350.84
2023-12-18T10:19:37.760Z,61376.56
2023-12-18T10:22:08.130Z,61353.00
2023-12-18T10:24:41.657Z,61288.00
2023-12-18T10:27:09.813Z,61297.00
2023-12-18T10:29:37.995Z,61307.47
2023-12-18T10:32:06.613Z,61327.31
2023-12-18T10:34:38.081Z,61334.72
2023-12-18T10:37:07.864Z,61368.53
2023-12-18T10:39:40.580Z,61327.22
2023-12-18T10:42:19.674Z,61353.06
2023-12-18T10:44:48.078Z,61333.25
2023-12-18T10:47:17.424Z,61418.38
2023-12-18T10:49:46.939Z,61358.91
2023-12-18T10:52:17.041Z,61350.78
2023-12-18T10:54:47.195Z,61382.47
2023-12-18T10:57:18.755Z,61452.69
2023-12-18T10:59:52.209Z,61400.44
2023-12-18T11:02:20.844Z,61394.25
2023-12-18T11:04:49.779Z,61431.53
2023-12-18T11:07:20.845Z,61523.31
2023-12-18T11:09:50.751Z,61499.31
2023-12-18T11:12:21.000Z,61435.53
2023-12-18T11:15:00.667Z,61458.84
2023-12-18T11:17:40.331Z,61452.75
2023-12-18T11:20:18.917Z,61432.22
2023-12-18T11:22:49.861Z,61473.13
2023-12-18T11:25:19.351Z,61471.34
2023-12-18T11:27:47.402Z,61469.84
2023-12-18T11:30:26.555Z,61510.44
2023-12-18T11:32:54.937Z,61514.25
2023-12-18T11:35:29.766Z,61508.44
2023-12-18T11:38:08.349Z,61463.22
2023-12-18T11:40:44.288Z,61433.13
2023-12-18T11:43:13.978Z,61470.81
2023-12-18T11:45:42.511Z,61494.41
2023-12-18T11:48:11.632Z,61490.13
2023-12-18T11:50:40.909Z,61481.38
2023-12-18T11:53:20.169Z,61526.00
2023-12-18T11:55:51.474Z,61552.97
2023-12-18T11:58:21.836Z,61600.31
2023-12-18T12:00:50.399Z,61559.16
2023-12-18T12:03:18.801Z,61582.59
2023-12-18T12:05:48.236Z,61635.66
2023-12-18T12:08:18.076Z,61601.22
2023-12-18T12:10:47.534Z,61619.88
2023-12-18T12:13:20.249Z,61581.44
2023-12-18T12:15:58.936Z,61588.66
2023-12-18T12:18:28.310Z,61647.38
2023-12-18T12:20:56.921Z,61629.66
2023-12-18T12:23:27.095Z,61590.81
2023-12-18T12:25:58.801Z,61652.22
2023-12-18T12:28:29.625Z,61665.75
2023-12-18T12:30:57.822Z,61661.38
2023-12-18T12:33:26.219Z,61653.47
2023-12-18T12:35:55.020Z,61618.00
2023-12-18T12:38:23.116Z,61658.22
2023-12-18T12:40:53.928Z,61704.88
2023-12-18T12:43:22.030Z,61713.50
2023-12-18T12:45:50.704Z,61698.59
2023-12-18T12:48:18.801Z,61772.63
2023-12-18T12:50:48.812Z,61757.91
2023-12-18T12:53:16.802Z,61814.16
2023-12-18T12:55:44.844Z,61838.34
2023-12-18T12:58:14.442Z,61809.59
2023-12-18T13:00:42.545Z,61847.50
2023-12-18T13:03:10.743Z,61807.16
2023-12-18T13:05:38.920Z,61870.13
2023-12-18T13:08:07.060Z,61949.84
2023-12-18T13:10:34.057Z,61836.75
2023-12-18T13:13:02.042Z,61938.38
2023-12-18T13:15:31.573Z,61892.19
2023-12-18T13:17:59.688Z,61973.06
2023-12-18T13:20:29.249Z,62008.56
2023-12-18T13:22:58.027Z,61996.19
2023-12-18T13:25:25.972Z,61939.59
2023-12-18T13:27:54.494Z,61999.47
2023-12-18T13:30:22.755Z,61998.34
2023-12-18T13:32:52.273Z,61956.28
2023-12-18T13:35:20.678Z,61957.91
2023-12-18T13:37:48.753Z,61968.06
2023-12-18T13:40:16.811Z,61906.28
2023-12-18T13:42:44.920Z,61926.41
2023-12-18T13:45:13.006Z,61924.50
2023-12-18T13:47:41.152Z,61945.53
2023-12-18T13:50:12.097Z,61960.69
2023-12-18T13:52:40.284Z,61951.13
2023-12-18T13:55:09.041Z,62058.25
2023-12-18T13:57:43.612Z,62027.50
2023-12-18T14:00:16.862Z,62084.66
2023-12-18T14:02:44.851Z,62132.69
2023-12-18T14:05:14.532Z,62113.97
2023-12-18T14:07:42.891Z,62079.28
2023-12-18T14:10:11.444Z,62028.50
2023-12-18T14:12:39.750Z,61974.69
2023-12-18T14:15:09.065Z,61866.03
2023-12-18T14:17:37.067Z,61823.56
2023-12-18T14:20:06.574Z,61851.81
2023-12-18T14:22:36.422Z,61824.81
2023-12-18T14:25:04.609Z,61838.34
2023-12-18T14:27:34.268Z,61864.09
2023-12-18T14:30:02.605Z,61849.66
2023-12-18T14:32:30.581Z,61860.97
2023-12-18T14:34:58.756Z,61840.25
2023-12-18T14:37:26.899Z,61854.19
2023-12-18T14:39:56.384Z,61841.13
2023-12-18T14:42:24.506Z,61831.81
2023-12-18T14:44:52.545Z,61835.13
2023-12-18T14:47:20.582Z,61809.38
2023-12-18T14:49:48.679Z,61804.53
2023-12-18T14:52:16.728Z,61785.88
2023-12-18T14:54:44.745Z,61796.44
2023-12-18T14:57:14.153Z,61786.69
2023-12-18T14:59:42.137Z,61811.53
2023-12-18T15:02:10.144Z,61817.81
2023-12-18T15:04:38.136Z,61771.72
2023-12-18T15:07:06.796Z,61773.34
2023-12-18T15:09:34.836Z,61781.84
2023-12-18T15:12:02.877Z,61769.03
2023-12-18T15:14:32.492Z,61779.63
2023-12-18T15:17:05.811Z,61768.94
2023-12-18T15:19:37.005Z,61749.53
2023-12-18T15:22:05.931Z,61751.75
2023-12-18T15:24:34.133Z,61739.47
2023-12-18T15:27:02.106Z,61709.50
2023-12-18T15:29:31.201Z,61696.69
2023-12-18T15:32:00.559Z,61691.78
2023-12-18T15:34:28.670Z,61711.34
2023-12-18T15:36:56.886Z,61686.63
2023-12-18T15:39:25.203Z,61653.31
2023-12-18T15:41:53.367Z,61662.06
2023-12-18T15:44:21.407Z,61665.28
2023-12-18T15:46:49.490Z,61609.06
2023-12-18T15:49:25.319Z,61590.03
2023-12-18T15:51:55.043Z,61598.00
2023-12-18T15:54:23.033Z,61586.72
2023-12-18T15:56:53.801Z,61584.09
2023-12-18T15:59:22.966Z,61563.72
2023-12-18T16:01:51.071Z,61550.84
2023-12-18T16:04:20.535Z,61567.38
2023-12-18T16:06:49.125Z,61568.47
2023-12-18T16:09:17.189Z,61554.13
2023-12-18T16:11:45.182Z,61524.28
2023-12-18T16:14:13.155Z,61533.72
2023-12-18T16:16:41.222Z,61508.38
2023-12-18T16:19:09.292Z,61530.00
2023-12-18T16:21:39.691Z,61531.50
2023-12-18T16:24:08.411Z,61524.06
2023-12-18T16:26:37.240Z,61528.75
2023-12-18T16:29:06.610Z,61495.31
2023-12-18T16:31:34.710Z,61517.03
2023-12-18T16:34:03.228Z,61491.81
2023-12-18T16:36:31.687Z,61471.97
2023-12-18T16:39:01.249Z,61473.13
2023-12-18T16:41:32.702Z,61469.31
2023-12-18T16:44:01.386Z,61486.53
2023-12-18T16:46:39.691Z,61488.59
2023-12-18T16:49:11.498Z,61484.75
2023-12-18T16:51:40.165Z,61474.03
2023-12-18T16:54:09.728Z,61453.50
2023-12-18T16:56:38.093Z,61468.84
2023-12-18T16:59:06.291Z,61466.06
2023-12-18T17:01:34.368Z,61464.56
2023-12-18T17:04:02.569Z,61445.63
2023-12-18T17:06:30.868Z,61446.59
2023-12-18T17:08:59.119Z,61427.94
2023-12-18T17:11:28.687Z,61420.97
2023-12-18T17:13:56.749Z,61410.31
2023-12-18T17:16:25.023Z,61408.19
2023-12-18T17:18:53.052Z,61416.69
2023-12-18T17:21:21.165Z,61365.09
2023-12-18T17:23:49.160Z,61385.69
2023-12-18T17:26:19.453Z,61379.25
2023-12-18T17:28:51.311Z,61386.22
2023-12-18T17:31:19.394Z,61395.78
2023-12-18T17:33:47.604Z,61376.13
2023-12-18T17:36:18.279Z,61358.25
2023-12-18T17:38:46.375Z,61346.34
2023-12-18T17:41:15.378Z,61367.91
2023-12-18T17:43:43.881Z,61360.19
2023-12-18T17:46:15.359Z,61364.03
2023-12-18T17:48:44.044Z,61397.75
2023-12-18T17:51:13.247Z,61317.41
2023-12-18T17:53:41.458Z,61332.66
2023-12-18T17:56:11.771Z,61309.00
2023-12-18T17:58:40.212Z,61360.41
2023-12-18T18:01:09.507Z,61343.34
2023-12-18T18:03:39.122Z,61334.56
2023-12-18T18:06:10.202Z,61344.34
2023-12-18T18:08:38.857Z,61321.72
2023-12-18T18:11:07.894Z,61345.50
2023-12-18T18:13:35.987Z,61347.56
2023-12-18T18:16:04.234Z,61370.69
2023-12-18T18:18:32.424Z,61360.41
2023-12-18T18:21:01.946Z,61355.06
2023-12-18T18:23:30.324Z,61331.50
2023-12-18T18:25:58.369Z,61310.47
2023-12-18T18:28:26.396Z,61334.16
2023-12-18T18:30:56.598Z,61318.13
2023-12-18T18:33:26.268Z,61309.41
2023-12-18T18:35:54.343Z,61333.72
2023-12-18T18:38:23.888Z,61291.13
2023-12-18T18:40:51.909Z,61331.50
2023-12-18T18:43:20.090Z,61286.94
2023-12-18T18:45:48.152Z,61321.31
2023-12-18T18:48:16.263Z,61305.13
2023-12-18T18:50:44.346Z,61328.28
2023-12-18T18:53:12.378Z,61342.91
2023-12-18T18:55:41.795Z,61329.72
2023-12-18T18:58:09.788Z,61368.47
2023-12-18T19:00:39.132Z,61329.72
2023-12-18T19:03:12.814Z,61386.75
2023-12-18T19:05:44.893Z,61332.50
2023-12-18T19:08:12.885Z,61394.88
2023-12-18T19:10:42.342Z,61355.66
2023-12-18T19:13:10.363Z,61372.28
2023-12-18T19:15:38.408Z,61355.66
2023-12-18T19:18:06.859Z,61333.94
2023-12-18T19:20:35.661Z,61355.22
2023-12-18T19:23:04.538Z,61349.19
2023-12-18T19:25:32.722Z,61342.81
2023-12-18T19:28:02.514Z,61317.66
2023-12-18T19:30:30.834Z,61266.81
2023-12-18T19:32:58.887Z,61273.22
2023-12-18T19:35:27.052Z,61230.22
2023-12-18T19:37:55.089Z,61284.84
2023-12-18T19:40:24.200Z,61239.31
2023-12-18T19:42:52.416Z,61289.75
2023-12-18T19:45:22.047Z,61280.63
2023-12-18T19:50:21.435Z,61269.56
2023-12-18T19:52:49.500Z,61277.44
2023-12-18T19:55:17.592Z,61262.41
2023-12-18T19:57:46.610Z,61296.16
2023-12-18T20:00:16.307Z,61294.41
2023-12-18T20:02:48.584Z,61317.66
2023-12-18T20:05:16.675Z,61295.47
2023-12-18T20:07:44.792Z,61357.81
2023-12-18T20:10:13.217Z,61305.03
2023-12-18T20:12:41.532Z,61327.06
2023-12-18T20:15:11.386Z,61350.94
2023-12-18T20:17:39.467Z,61336.31
2023-12-18T20:20:09.832Z,61331.03
2023-12-18T20:22:37.887Z,61349.25
2023-12-18T20:25:06.792Z,61305.13
2023-12-18T20:27:34.894Z,61325.16
2023-12-18T20:30:02.971Z,61286.84
2023-12-18T20:32:32.493Z,61318.03
2023-12-18T20:35:03.297Z,61320.41
2023-12-18T20:37:32.675Z,61325.06
2023-12-18T20:40:00.925Z,61312.41
2023-12-18T20:42:29.002Z,61311.31
2023-12-18T20:44:57.214Z,61320.78
2023-12-18T20:47:25.249Z,61310.19
2023-12-18T20:49:53.350Z,61305.34
2023-12-18T20:52:21.387Z,61273.00
2023-12-18T20:54:50.879Z,61296.16
2023-12-18T20:57:19.926Z,61259.63
2023-12-18T20:59:51.289Z,61270.03
2023-12-18T21:02:26.730Z,61262.97
2023-12-18T21:04:55.082Z,61256.09
2023-12-18T21:07:23.148Z,61258.78
2023-12-18T21:09:53.599Z,61213.19
2023-12-18T21:12:22.622Z,61239.44
2023-12-18T21:14:50.734Z,61232.03
2023-12-18T21:17:18.749Z,61233.41
2023-12-18T21:19:46.827Z,61216.44
2023-12-18T21:22:14.930Z,61185.50
2023-12-18T21:24:43.211Z,61187.47
2023-12-18T21:27:12.721Z,61188.09
2023-12-18T21:29:40.670Z,61192.34
2023-12-18T21:32:09.170Z,61148.94
2023-12-18T21:34:37.429Z,61175.25
2023-12-18T21:37:06.738Z,61177.72
2023-12-18T21:39:34.877Z,61193.75
2023-12-18T21:42:05.890Z,61179.63
2023-12-18T21:44:35.266Z,61153.97
2023-12-18T21:47:03.318Z,61170.31
2023-12-18T21:49:32.391Z,61179.94
2023-12-18T21:52:01.594Z,61173.66
2023-12-18T21:54:29.680Z,61201.53
2023-12-18T21:56:57.779Z,61199.31
2023-12-18T21:59:36.313Z,61199.22
2023-12-18T22:02:04.342Z,61174.06
2023-12-18T22:04:32.369Z,61215.44
2023-12-18T22:07:00.586Z,61221.34
2023-12-18T22:09:28.623Z,61228.75
2023-12-18T22:11:56.605Z,61214.38
2023-12-18T22:14:25.468Z,61205.28
2023-12-18T22:16:56.567Z,61217.59
2023-12-18T22:19:25.155Z,61186.38
2023-12-18T22:21:53.226Z,61183.69
2023-12-18T22:24:21.272Z,61203.69
2023-12-18T22:26:49.285Z,61184.84
2023-12-18T22:29:17.286Z,61181.75
2023-12-18T22:31:45.408Z,61154.50
2023-12-18T22:34:15.025Z,61171.59
2023-12-18T22:36:43.185Z,61168.94
2023-12-18T22:39:12.127Z,61176.84
2023-12-18T22:41:41.830Z,61184.88
2023-12-18T22:44:10.160Z,61245.84
2023-12-18T22:46:39.858Z,61292.41
2023-12-18T22:49:08.381Z,61324.91
2023-12-18T22:51:37.838Z,61411.16
2023-12-18T22:54:05.928Z,61438.28
2023-12-18T22:56:33.893Z,61512.75
2023-12-18T22:59:01.858Z,61558.28
2023-12-18T23:01:29.946Z,61653.38
2023-12-18T23:03:59.115Z,61602.63
2023-12-18T23:06:27.268Z,61622.75
2023-12-18T23:08:57.224Z,61634.50
2023-12-18T23:11:25.788Z,61722.72
2023-12-18T23:13:53.778Z,61740.78
2023-12-18T23:16:21.995Z,61752.28
2023-12-18T23:18:50.115Z,61634.59
2023-12-18T23:21:18.182Z,61535.53
2023-12-18T23:23:46.264Z,61479.56
2023-12-18T23:26:15.621Z,61432.28
2023-12-18T23:28:43.631Z,61412.91
2023-12-18T23:31:11.724Z,61365.22
2023-12-18T23:33:39.904Z,61308.88
2023-12-18T23:36:08.664Z,61298.69
2023-12-18T23:38:36.694Z,61281.66
2023-12-18T23:41:04.933Z,61306.94
2023-12-18T23:43:34.588Z,61262.75
2023-12-18T23:46:02.805Z,61272.78
2023-12-18T23:48:30.888Z,61276.44
2023-12-18T23:50:58.906Z,61258.25
2023-12-18T23:53:27.007Z,61277.59
2023-12-18T23:55:54.984Z,61307.41
2023-12-18T23:58:22.956Z,61312.22
